Time;durP1;ratioP1;P1;durP2;ratioP2;P2;SDS_P1;SDS_P2;PMS_P1;PMS_P2;Temp;Humidity;BMP_temperature;BMP_pressure;BME280_temperature;BME280_humidity;BME280_pressure;Samples;Min_cycle;Max_cycle;Signal;HPM_P1;HPM_P2
2020/12/12 00:01:56;;;;;;;17.23;10.38;;;;;;;-2.19;82.82;100780.08;1825327;77;21215;-70
2020/12/12 00:04:24;;;;;;;16.17;9.85;;;;;;;-2.17;82.79;100780.73;1874122;75;21215;-71
2020/12/12 00:06:52;;;;;;;18.70;11.22;;;;;;;-2.14;82.76;100780.41;1836161;77;21437;-73
2020/12/12 00:09:20;;;;;;;20.15;11.95;;;;;;;-2.12;82.72;100777.11;1850045;76;21183;-72
2020/12/12 00:11:49;;;;;;;20.60;11.22;;;;;;;-2.14;82.67;100776.48;1846957;76;21207;-71
2020/12/12 00:14:17;;;;;;;18.07;11.95;;;;;;;-2.15;82.67;100775.32;1816723;76;21153;-74
2020/12/12 00:16:45;;;;;;;21.97;12.68;;;;;;;-2.14;82.76;100779.09;1846744;76;22401;-72
2020/12/12 00:19:13;;;;;;;20.05;11.40;;;;;;;-2.14;82.76;100769.09;1848575;76;21251;-72
2020/12/12 00:21:41;;;;;;;21.65;12.23;;;;;;;-2.13;82.81;100772.87;1847691;76;21235;-72
2020/12/12 00:24:09;;;;;;;18.92;10.85;;;;;;;-2.09;82.81;100771.22;1847945;76;21179;-72
2020/12/12 00:26:37;;;;;;;18.73;10.53;;;;;;;-2.08;82.82;100768.92;1850977;75;21188;-72
2020/12/12 00:29:06;;;;;;;19.75;12.33;;;;;;;-2.06;82.82;100764.34;1875734;75;21091;-72
2020/12/12 00:31:34;;;;;;;21.60;12.58;;;;;;;-2.05;82.79;100769.39;1850053;76;22622;-74
2020/12/12 00:34:02;;;;;;;20.10;11.95;;;;;;;-2.02;82.80;100766.94;1845263;77;21141;-74
2020/12/12 00:36:30;;;;;;;20.08;11.95;;;;;;;-2.01;82.78;100761.52;1872954;75;21188;-74
2020/12/12 00:38:58;;;;;;;22.07;13.10;;;;;;;-2.00;82.75;100759.25;1842286;77;21180;-74
2020/12/12 00:41:26;;;;;;;17.42;10.72;;;;;;;-1.98;82.76;100751.21;1873509;75;21132;-73
2020/12/12 00:43:54;;;;;;;20.95;12.93;;;;;;;-1.99;82.75;100755.64;1842730;77;21295;-72
2020/12/12 00:46:22;;;;;;;17.30;10.30;;;;;;;-2.00;82.78;100755.82;1845086;76;21160;-73
2020/12/12 00:48:52;;;;;;;20.35;11.08;;;;;;;-1.98;82.80;100747.28;1880652;75;21623;-73
2020/12/12 00:51:24;;;;;;;20.40;12.55;;;;;;;-1.98;82.83;100744.17;1849603;76;21129;-73
2020/12/12 00:54:03;;;;;;;20.37;12.35;;;;;;;-1.95;82.81;100744.33;1809605;77;21616;-74
2020/12/12 00:56:28;;;;;;;19.62;12.68;;;;;;;-1.95;82.80;100741.22;1877542;75;21286;-75
2020/12/12 00:58:57;;;;;;;20.77;11.88;;;;;;;-1.92;82.75;100739.56;1877052;75;21172;-75
2020/12/12 01:01:25;;;;;;;20.00;11.88;;;;;;;-1.93;82.76;100737.13;1858474;75;21189;-75
2020/12/12 01:03:54;;;;;;;17.92;10.75;;;;;;;-1.92;82.78;100740.06;1860564;76;21215;-74
2020/12/12 01:06:22;;;;;;;23.90;13.80;;;;;;;-1.93;82.78;100736.63;1854182;75;21196;-74
2020/12/12 01:08:50;;;;;;;19.67;11.97;;;;;;;-1.93;82.76;100743.67;1884555;75;21328;-75
2020/12/12 01:11:19;;;;;;;21.65;12.37;;;;;;;-1.91;82.80;100739.91;1835299;77;21171;-74
2020/12/12 01:13:47;;;;;;;20.15;12.50;;;;;;;-1.90;82.80;100741.53;1851640;77;21164;-75
2020/12/12 01:16:16;;;;;;;17.95;10.65;;;;;;;-1.86;82.79;100740.70;1865413;76;21160;-75
2020/12/12 01:18:45;;;;;;;19.75;13.18;;;;;;;-1.84;82.80;100733.97;1852298;77;21105;-75
2020/12/12 01:21:17;;;;;;;22.93;13.32;;;;;;;-1.84;82.75;100733.50;1865741;76;21266;-74
2020/12/12 01:23:45;;;;;;;20.37;11.93;;;;;;;-1.83;82.69;100733.81;1854077;77;28667;-74
2020/12/12 01:26:14;;;;;;;20.40;11.80;;;;;;;-1.82;82.72;100732.81;1857599;76;21136;-74
2020/12/12 01:28:41;;;;;;;20.77;12.65;;;;;;;-1.80;82.76;100732.66;1850902;77;21177;-74
2020/12/12 01:31:13;;;;;;;20.60;11.60;;;;;;;-1.79;82.77;100733.78;1888246;75;21124;-75
2020/12/12 01:33:43;;;;;;;20.60;11.48;;;;;;;-1.76;82.73;100733.94;1888897;75;22263;-75
2020/12/12 01:36:11;;;;;;;19.07;11.60;;;;;;;-1.76;82.71;100726.89;1869564;75;21180;-74
2020/12/12 01:38:40;;;;;;;20.97;12.73;;;;;;;-1.75;82.70;100731.14;1865621;75;21235;-74
2020/12/12 01:41:08;;;;;;;21.02;12.33;;;;;;;-1.74;82.63;100735.91;1874054;75;21156;-74
2020/12/12 01:43:36;;;;;;;19.95;11.95;;;;;;;-1.75;82.57;100736.38;1888575;75;21160;-74
2020/12/12 01:46:04;;;;;;;23.00;13.48;;;;;;;-1.75;82.56;100735.06;1879342;75;21398;-74
2020/12/12 01:48:32;;;;;;;20.02;11.08;;;;;;;-1.75;82.54;100737.68;1865066;75;21691;-74
2020/12/12 01:51:01;;;;;;;21.40;11.43;;;;;;;-1.76;82.41;100737.87;1863519;75;21153;-74
2020/12/12 01:53:28;;;;;;;18.70;11.93;;;;;;;-1.78;82.32;100735.91;1856323;75;21161;-74
2020/12/12 01:55:57;;;;;;;18.75;11.60;;;;;;;-1.80;82.38;100736.59;1863874;75;21141;-74
2020/12/12 01:58:25;;;;;;;16.93;10.35;;;;;;;-1.80;82.37;100739.20;1880190;75;21682;-73
2020/12/12 02:00:55;;;;;;;19.02;11.97;;;;;;;-1.81;82.39;100734.94;1836577;77;21172;-74
2020/12/12 02:03:25;;;;;;;18.50;11.53;;;;;;;-1.79;82.32;100740.33;1855030;75;21211;-73
2020/12/12 02:05:54;;;;;;;18.20;11.22;;;;;;;-1.80;82.30;100733.47;1861980;75;21596;-74
2020/12/12 02:08:23;;;;;;;18.45;11.70;;;;;;;-1.81;82.26;100733.62;1815916;78;21189;-73
2020/12/12 02:10:51;;;;;;;16.62;10.23;;;;;;;-1.81;82.17;100734.47;1866992;75;21772;-72
2020/12/12 02:13:19;;;;;;;19.35;11.48;;;;;;;-1.81;82.10;100731.01;1845514;76;22228;-71
2020/12/12 02:15:47;;;;;;;19.90;10.35;;;;;;;-1.80;82.02;100731.34;1844587;76;21651;-71
2020/12/12 02:18:24;;;;;;;18.20;10.25;;;;;;;-1.81;81.89;100725.77;1853876;76;21191;-73
2020/12/12 02:21:00;;;;;;;18.65;10.70;;;;;;;-1.84;81.85;100725.64;1840416;76;21159;-73
2020/12/12 02:23:28;;;;;;;19.50;11.40;;;;;;;-1.89;81.74;100729.25;1844850;76;21204;-73
2020/12/12 02:25:57;;;;;;;17.07;10.68;;;;;;;-1.91;81.78;100731.22;1861222;76;22475;-73
2020/12/12 02:28:32;;;;;;;19.77;11.35;;;;;;;-1.93;81.74;100726.66;1854325;76;21176;-72
2020/12/12 02:30:56;;;;;;;19.00;10.80;;;;;;;-1.94;81.73;100728.94;1860337;76;21690;-73
2020/12/12 02:33:25;;;;;;;16.65;10.00;;;;;;;-1.95;81.71;100729.94;1875185;75;21622;-73
2020/12/12 02:35:57;;;;;;;17.73;10.68;;;;;;;-1.95;81.74;100719.46;1872935;75;21184;-73
2020/12/12 02:38:28;;;;;;;18.56;11.09;;;;;;;-1.96;81.66;100723.08;1763026;76;9999924;-71
2020/12/12 02:40:56;;;;;;;20.72;11.85;;;;;;;-1.97;81.63;100721.45;1847602;76;24257;-72
2020/12/12 02:43:25;;;;;;;18.60;11.08;;;;;;;-1.98;81.57;100723.23;1849906;76;21288;-72
2020/12/12 02:45:54;;;;;;;21.00;12.00;;;;;;;-1.97;81.58;100726.69;1846691;76;22189;-74
2020/12/12 02:48:24;;;;;;;19.73;11.65;;;;;;;-2.00;81.53;100719.17;1833712;76;21421;-74
2020/12/12 02:50:51;;;;;;;18.17;11.53;;;;;;;-2.03;81.55;100711.16;1815995;75;21170;-73
2020/12/12 02:53:21;;;;;;;19.62;11.68;;;;;;;-2.05;81.37;100717.05;1830148;77;21172;-73
2020/12/12 02:55:49;;;;;;;20.65;11.75;;;;;;;-2.06;81.42;100717.23;1842745;76;21140;-73
2020/12/12 02:58:17;;;;;;;19.05;11.28;;;;;;;-2.08;81.38;100715.27;1846988;76;21171;-73
2020/12/12 03:00:45;;;;;;;21.90;11.83;;;;;;;-2.13;81.38;100712.67;1842247;76;21204;-73
2020/12/12 03:03:14;;;;;;;17.90;10.70;;;;;;;-2.14;81.39;100714.98;1848927;76;21253;-73
2020/12/12 03:05:42;;;;;;;20.50;12.15;;;;;;;-2.15;81.38;100709.41;1852253;75;21169;-73
2020/12/12 03:08:11;;;;;;;18.73;11.60;;;;;;;-2.14;81.39;100709.75;1839353;77;21215;-72
2020/12/12 03:10:40;;;;;;;19.20;11.75;;;;;;;-2.13;81.38;100708.75;1852458;75;21146;-72
2020/12/12 03:13:08;;;;;;;20.40;12.60;;;;;;;-2.12;81.34;100709.56;1836650;77;21354;-73
2020/12/12 03:15:36;;;;;;;20.25;12.37;;;;;;;-2.14;81.25;100709.75;1849294;76;21124;-73
2020/12/12 03:18:04;;;;;;;18.42;11.38;;;;;;;-2.15;81.28;100715.13;1839595;76;21599;-72
2020/12/12 03:20:32;;;;;;;18.67;10.53;;;;;;;-2.16;81.23;100712.20;1845581;76;21147;-73
2020/12/12 03:23:01;;;;;;;18.67;11.00;;;;;;;-2.16;81.24;100714.33;1845896;76;21153;-73
2020/12/12 03:25:29;;;;;;;18.07;11.68;;;;;;;-2.20;81.23;100711.73;1847273;76;21362;-72
2020/12/12 03:27:58;;;;;;;16.23;9.55;;;;;;;-2.18;81.21;100714.16;1850648;75;21643;-71
2020/12/12 03:30:26;;;;;;;19.70;11.08;;;;;;;-2.20;81.18;100710.92;1832188;77;21125;-72
2020/12/12 03:32:54;;;;;;;18.17;11.70;;;;;;;-2.20;81.24;100713.53;1836660;76;21196;-72
2020/12/12 03:35:22;;;;;;;16.65;10.35;;;;;;;-2.23;81.23;100711.25;1856317;76;21469;-72
2020/12/12 03:37:51;;;;;;;20.30;12.25;;;;;;;-2.21;81.28;100714.00;1851066;77;21082;-73
2020/12/12 03:40:23;;;;;;;18.10;11.18;;;;;;;-2.25;81.20;100708.80;1835874;77;21136;-73
2020/12/12 03:42:54;;;;;;;21.07;11.68;;;;;;;-2.26;81.21;100719.44;1842764;77;21060;-74
2020/12/12 03:45:22;;;;;;;17.92;10.78;;;;;;;-2.29;81.11;100719.77;1836588;77;21168;-72
2020/12/12 03:47:50;;;;;;;17.60;10.88;;;;;;;-2.33;81.10;100721.11;1832567;77;21054;-73
2020/12/12 03:50:27;;;;;;;19.52;11.20;;;;;;;-2.33;81.12;100722.41;1844908;75;21199;-73
2020/12/12 03:52:49;;;;;;;17.50;10.30;;;;;;;-2.36;80.94;100722.25;1838596;77;21164;-73
2020/12/12 03:55:17;;;;;;;16.07;9.53;;;;;;;-2.38;80.96;100722.41;1840166;77;21113;-73
2020/12/12 03:57:45;;;;;;;16.97;10.20;;;;;;;-2.37;80.88;100724.52;1840062;77;21160;-73
2020/12/12 04:00:13;;;;;;;17.30;10.70;;;;;;;-2.39;80.89;100719.97;1846677;77;21058;-72
2020/12/12 04:02:41;;;;;;;17.73;10.93;;;;;;;-2.43;80.72;100722.11;1831642;77;21195;-73
2020/12/12 04:05:10;;;;;;;20.88;10.88;;;;;;;-2.47;80.67;100724.74;1849009;76;21391;-72
2020/12/12 04:07:39;;;;;;;17.30;9.95;;;;;;;-2.45;80.75;100723.25;1840497;77;21160;-73
2020/12/12 04:10:07;;;;;;;17.07;9.90;;;;;;;-2.46;80.79;100720.32;1839957;77;21121;-73
2020/12/12 04:12:35;;;;;;;17.17;9.93;;;;;;;-2.47;80.79;100726.52;1830722;77;21112;-73
2020/12/12 04:15:04;;;;;;;17.95;10.65;;;;;;;-2.49;80.78;100721.47;1841555;76;21350;-73
2020/12/12 04:17:32;;;;;;;18.85;10.98;;;;;;;-2.50;80.76;100726.84;1854778;75;21197;-73
2020/12/12 04:20:00;;;;;;;16.82;10.35;;;;;;;-2.51;80.78;100726.03;1833698;77;21148;-73
2020/12/12 04:22:28;;;;;;;18.07;11.45;;;;;;;-2.51;80.76;100719.99;1849542;76;21116;-74
2020/12/12 04:24:56;;;;;;;19.32;11.08;;;;;;;-2.53;80.74;100720.17;1866432;76;21139;-74
2020/12/12 04:27:24;;;;;;;21.55;10.93;;;;;;;-2.53;80.81;100716.25;1856097;75;21161;-73
2020/12/12 04:29:53;;;;;;;22.65;12.40;;;;;;;-2.54;80.68;100712.48;1833598;77;21176;-73
2020/12/12 04:32:21;;;;;;;19.82;11.40;;;;;;;-2.57;80.65;100711.01;1857292;77;21048;-74
2020/12/12 04:34:49;;;;;;;19.92;11.60;;;;;;;-2.58;80.66;100712.50;1876284;75;21492;-73
2020/12/12 04:37:17;;;;;;;19.42;11.10;;;;;;;-2.59;80.57;100710.38;1865495;75;21112;-73
2020/12/12 04:39:45;;;;;;;22.62;12.25;;;;;;;-2.63;80.46;100710.39;1872857;75;21190;-74
2020/12/12 04:42:14;;;;;;;18.32;11.30;;;;;;;-2.66;80.30;100708.11;1855126;76;21179;-73
2020/12/12 04:44:43;;;;;;;18.07;10.15;;;;;;;-2.70;80.10;100698.48;1855947;75;21150;-74
2020/12/12 04:47:12;;;;;;;20.02;11.28;;;;;;;-2.74;80.02;100707.62;1826678;77;21156;-74
2020/12/12 04:49:41;;;;;;;18.57;11.60;;;;;;;-2.78;79.99;100710.24;1878663;75;21188;-72
2020/12/12 04:52:09;;;;;;;20.40;11.20;;;;;;;-2.78;80.06;100705.02;1877350;75;21477;-73
2020/12/12 04:54:37;;;;;;;18.40;10.53;;;;;;;-2.77;80.03;100699.29;1865558;75;21088;-73
2020/12/12 04:57:06;;;;;;;20.62;11.45;;;;;;;-2.82;79.81;100702.41;1835591;77;21218;-73
2020/12/12 04:59:35;;;;;;;16.55;10.15;;;;;;;-2.87;79.74;100702.08;1848545;77;21136;-74
2020/12/12 05:02:03;;;;;;;18.42;11.38;;;;;;;-2.89;79.74;100707.49;1842661;77;21093;-74
2020/12/12 05:04:32;;;;;;;18.57;11.43;;;;;;;-2.91;79.74;100695.56;1844091;77;21277;-73
2020/12/12 05:07:01;;;;;;;18.60;10.93;;;;;;;-2.94;79.61;100699.81;1848957;77;21494;-74
2020/12/12 05:09:29;;;;;;;17.42;10.90;;;;;;;-2.99;79.43;100699.50;1846580;77;21140;-73
2020/12/12 05:11:57;;;;;;;18.17;10.63;;;;;;;-3.01;79.46;100702.27;1856030;77;21114;-73
2020/12/12 05:14:25;;;;;;;16.75;10.10;;;;;;;-3.05;79.48;100704.89;1833431;77;21560;-73
2020/12/12 05:16:57;;;;;;;18.45;11.10;;;;;;;-3.05;79.48;100697.55;1857267;77;21512;-73
2020/12/12 05:19:25;;;;;;;16.10;10.15;;;;;;;-3.10;79.44;100688.37;1859237;77;21072;-74
2020/12/12 05:21:54;;;;;;;18.73;11.08;;;;;;;-3.13;79.42;100693.12;1837347;77;21048;-74
2020/12/12 05:24:25;;;;;;;19.75;12.03;;;;;;;-3.14;79.43;100698.84;1857424;75;21596;-73
2020/12/12 05:26:59;;;;;;;17.67;11.15;;;;;;;-3.13;79.36;100702.27;1876214;75;21030;-73
2020/12/12 05:29:27;;;;;;;19.00;11.88;;;;;;;-3.14;79.29;100694.11;1843854;75;21202;-73
2020/12/12 05:31:57;;;;;;;16.85;11.45;;;;;;;-3.16;79.34;100696.06;1857669;76;21139;-74
2020/12/12 05:34:27;;;;;;;17.27;10.40;;;;;;;-3.16;79.42;100694.28;1855630;77;21132;-73
2020/12/12 05:36:56;;;;;;;17.80;10.88;;;;;;;-3.16;79.48;100695.59;1844565;77;21161;-74
2020/12/12 05:39:24;;;;;;;18.80;11.57;;;;;;;-3.14;79.55;100698.84;1855471;77;21056;-73
2020/12/12 05:41:52;;;;;;;16.82;10.43;;;;;;;-3.15;79.58;100694.61;1871087;76;21194;-73
2020/12/12 05:44:20;;;;;;;17.60;10.95;;;;;;;-3.16;79.61;100694.28;1892343;75;21489;-73
2020/12/12 05:46:48;;;;;;;18.25;11.40;;;;;;;-3.19;79.37;100696.38;1889086;75;21135;-73
2020/12/12 05:49:17;;;;;;;19.35;12.37;;;;;;;-3.22;79.30;100701.47;1889812;75;21089;-73
2020/12/12 05:51:45;;;;;;;16.15;10.38;;;;;;;-3.21;79.40;100701.78;1871600;75;21117;-73
2020/12/12 05:54:13;;;;;;;20.90;12.25;;;;;;;-3.19;79.41;100688.55;1851346;76;21367;-74
2020/12/12 05:56:44;;;;;;;19.85;11.93;;;;;;;-3.21;79.31;100686.11;1856370;75;21166;-73
2020/12/12 05:59:13;;;;;;;17.17;10.40;;;;;;;-3.24;79.43;100691.66;1807113;78;21608;-73
2020/12/12 06:01:41;;;;;;;17.70;10.63;;;;;;;-3.24;79.49;100692.97;1843703;76;21068;-73
2020/12/12 06:04:11;;;;;;;17.50;11.57;;;;;;;-3.26;79.52;100691.00;1846598;76;22967;-73
2020/12/12 06:06:46;;;;;;;21.05;12.82;;;;;;;-3.27;79.52;100688.06;1843824;76;21375;-74
2020/12/12 06:09:15;;;;;;;20.05;12.85;;;;;;;-3.26;79.50;100692.30;1854825;76;21180;-73
2020/12/12 06:11:46;;;;;;;20.37;11.25;;;;;;;-3.23;79.57;100694.59;1854282;76;21080;-73
2020/12/12 06:14:13;;;;;;;16.37;10.32;;;;;;;-3.21;79.62;100687.42;1840379;76;21480;-74
2020/12/12 06:16:42;;;;;;;16.95;10.55;;;;;;;-3.21;79.53;100690.03;1841356;76;21048;-73
2020/12/12 06:19:14;;;;;;;19.98;12.15;;;;;;;-3.18;79.56;100686.28;1863801;76;21353;-73
2020/12/12 06:21:45;;;;;;;18.23;11.53;;;;;;;-3.18;79.59;100691.01;1863982;76;21082;-73
2020/12/12 06:24:18;;;;;;;20.15;11.73;;;;;;;-3.17;79.63;100682.19;1866245;75;21124;-73
2020/12/12 06:27:06;;;;;;;16.75;10.13;;;;;;;-3.16;79.63;100690.37;1851023;75;21141;-73
2020/12/12 06:29:45;;;;;;;21.42;11.90;;;;;;;-3.15;79.56;100690.69;1854642;75;21165;-74
2020/12/12 06:32:17;;;;;;;20.02;11.35;;;;;;;-3.13;79.54;100688.70;1843304;75;21376;-73
2020/12/12 06:34:49;;;;;;;17.87;11.38;;;;;;;-3.13;79.51;100682.67;1840970;77;21128;-74
2020/12/12 06:37:27;;;;;;;;;;;;;;;-3.13;79.47;100688.70;1847870;77;21571;-74
2020/12/12 06:39:55;;;;;;;21.05;11.53;;;;;;;-3.13;79.40;100682.17;1839923;77;20321;-74
2020/12/12 06:42:36;;;;;;;17.00;10.00;;;;;;;-3.10;79.42;100692.30;1847188;76;21033;-74
2020/12/12 06:45:22;;;;;;;15.00;10.08;;;;;;;-3.11;79.46;100689.37;1830992;75;21351;-74
2020/12/12 06:47:52;;;;;;;17.57;10.63;;;;;;;-3.10;79.47;100694.91;1851652;76;21041;-73
2020/12/12 06:50:31;;;;;;;18.80;11.33;;;;;;;-3.09;79.50;100696.56;1857043;76;21209;-73
2020/12/12 06:52:56;;;;;;;15.78;9.28;;;;;;;-3.09;79.50;100692.64;1837101;77;21201;-74
2020/12/12 06:55:24;;;;;;;16.85;8.33;;;;;;;-3.07;79.63;100688.05;1843370;77;21100;-72
2020/12/12 06:57:56;;;;;;;16.15;10.23;;;;;;;-3.04;79.68;100679.57;1833819;77;21335;-73
2020/12/12 07:00:33;;;;;;;15.80;9.90;;;;;;;-3.03;79.68;100678.09;1840845;77;21252;-73
2020/12/12 07:03:05;;;;;;;17.07;10.28;;;;;;;-3.01;79.71;100670.91;1851370;76;21045;-73
2020/12/12 07:05:37;;;;;;;18.12;11.33;;;;;;;-3.00;79.63;100666.00;1853667;75;21175;-71
2020/12/12 07:08:12;;;;;;;18.27;10.98;;;;;;;-2.99;79.61;100664.23;1892915;75;21112;-74
2020/12/12 07:10:46;;;;;;;18.32;10.43;;;;;;;-2.96;79.68;100666.48;1881408;75;21358;-73
2020/12/12 07:13:19;;;;;;;17.40;11.28;;;;;;;-2.96;79.68;100659.95;1839887;77;21090;-74
2020/12/12 07:15:49;;;;;;;18.98;10.98;;;;;;;-2.96;79.66;100663.41;1854842;77;21137;-74
2020/12/12 07:18:18;;;;;;;15.60;10.00;;;;;;;-2.94;79.71;100655.38;1809347;77;21109;-74
2020/12/12 07:20:49;;;;;;;18.42;10.75;;;;;;;-2.94;79.68;100655.38;1854478;76;21231;-76
2020/12/12 07:23:22;;;;;;;17.62;10.15;;;;;;;-2.92;79.68;100658.66;1850446;76;22879;-72
2020/12/12 07:25:51;;;;;;;20.80;11.93;;;;;;;-2.94;79.70;100657.50;1850200;76;21209;-74
2020/12/12 07:28:26;;;;;;;22.00;11.95;;;;;;;-2.94;79.64;100659.30;1803533;78;21506;-74
2020/12/12 07:30:56;;;;;;;19.23;11.80;;;;;;;-2.95;79.74;100661.11;1843445;76;21117;-74
2020/12/12 07:33:46;;;;;;;18.43;11.07;;;;;;;-2.91;79.69;100654.55;1838965;76;22389;-74
2020/12/12 07:36:14;;;;;;;19.35;11.97;;;;;;;-2.96;79.69;100650.80;1796136;77;21112;-74
2020/12/12 07:38:42;;;;;;;17.92;10.98;;;;;;;-2.96;79.78;100653.41;1797957;77;21304;-72
2020/12/12 07:41:12;;;;;;;17.75;11.25;;;;;;;-2.96;79.83;100653.41;1800412;77;20965;-73
2020/12/12 07:43:55;;;;;;;19.95;11.22;;;;;;;-2.96;79.93;100650.80;1801243;77;21108;-73
2020/12/12 07:46:40;;;;;;;20.85;12.73;;;;;;;-2.94;79.92;100654.08;1789254;77;21151;-73
2020/12/12 07:49:10;;;;;;;18.37;10.53;;;;;;;-2.94;79.98;100655.38;1797749;77;21056;-73
2020/12/12 07:51:38;;;;;;;20.77;11.63;;;;;;;-2.91;80.02;100656.36;1801940;77;21232;-74
2020/12/12 07:54:17;;;;;;;17.50;10.30;;;;;;;-2.89;80.08;100655.22;1790064;79;21071;-73
2020/12/12 07:56:51;;;;;;;19.25;11.63;;;;;;;-2.83;80.18;100657.63;1799091;77;21067;-73
2020/12/12 07:59:19;;;;;;;22.13;12.43;;;;;;;-2.79;80.13;100658.95;1796398;77;21204;-74
2020/12/12 08:01:48;;;;;;;19.20;11.68;;;;;;;-2.77;80.14;100656.97;1805708;77;21140;-73
2020/12/12 08:04:23;;;;;;;20.02;11.12;;;;;;;-2.73;80.13;100656.98;1789048;79;21341;-74
2020/12/12 08:06:51;;;;;;;15.88;10.58;;;;;;;-2.71;80.14;100657.61;1790300;79;21460;-72
2020/12/12 08:09:21;;;;;;;17.92;10.78;;;;;;;-2.67;80.03;100656.78;1794615;77;21057;-73
2020/12/12 08:12:02;;;;;;;18.73;11.35;;;;;;;-2.67;80.08;100654.16;1812477;77;21129;-74
2020/12/12 08:14:32;;;;;;;19.30;11.57;;;;;;;-2.67;79.97;100658.90;1794364;77;21040;-73
2020/12/12 08:17:01;;;;;;;16.77;10.63;;;;;;;-2.65;79.97;100663.98;1759074;79;21755;-74
2020/12/12 08:19:29;;;;;;;17.77;11.00;;;;;;;-2.69;79.99;100659.58;1548339;77;10000489;-72
2020/12/12 08:22:12;;;;;;;19.12;11.53;;;;;;;-2.67;80.07;100663.31;1802086;77;21963;-72
2020/12/12 08:24:51;;;;;;;19.10;10.97;;;;;;;-2.63;80.11;100652.88;1850321;75;22728;-75
2020/12/12 08:27:26;;;;;;;18.62;11.73;;;;;;;-2.67;80.24;100654.98;1842018;77;21153;-73
2020/12/12 08:29:56;;;;;;;23.00;12.58;;;;;;;-2.64;80.26;100655.95;1833735;77;21223;-74
2020/12/12 08:32:46;;;;;;;22.95;13.45;;;;;;;-2.60;80.25;100653.34;1856855;77;21206;-74
2020/12/12 08:35:24;;;;;;;20.45;12.35;;;;;;;-2.55;80.29;100653.33;1852374;75;21180;-73
2020/12/12 08:38:00;;;;;;;22.22;13.03;;;;;;;-2.51;80.25;100655.92;1800927;79;21485;-75
2020/12/12 08:40:35;;;;;;;26.37;13.58;;;;;;;-2.49;80.18;100656.58;1800080;78;21144;-73
2020/12/12 08:43:07;;;;;;;19.48;11.63;;;;;;;-2.50;80.19;100651.00;1795920;78;21376;-73
2020/12/12 08:45:55;;;;;;;21.90;11.40;;;;;;;-2.49;80.26;100648.23;1829726;76;21156;-74
2020/12/12 08:48:33;;;;;;;18.90;11.75;;;;;;;-2.47;80.27;100646.74;1812742;78;21618;-72
2020/12/12 08:51:03;;;;;;;23.05;12.47;;;;;;;-2.48;80.32;100639.39;1852175;75;21148;-73
2020/12/12 08:53:39;;;;;;;18.50;10.25;;;;;;;-2.48;80.40;100643.31;1806337;78;21191;-72
2020/12/12 08:56:18;;;;;;;23.87;12.88;;;;;;;-2.44;80.53;100634.64;1839798;77;22159;-74
2020/12/12 09:01:43;;;;;;;21.30;11.53;;;;;;;-2.33;80.60;100637.39;1828387;76;22671;-72
2020/12/12 09:04:20;;;;;;;18.95;10.63;;;;;;;-2.33;80.62;100637.39;1834451;77;21152;-71
2020/12/12 09:09:31;;;;;;;19.20;10.80;;;;;;;-2.16;80.60;100637.63;1825159;76;22762;-73
2020/12/12 09:12:10;;;;;;;20.15;12.43;;;;;;;-2.19;80.56;100636.66;1786322;78;21584;-72
2020/12/12 09:14:44;;;;;;;18.42;11.08;;;;;;;-2.19;80.40;100625.70;1792196;78;21365;-71
2020/12/12 09:17:14;;;;;;;20.60;12.25;;;;;;;-2.21;80.31;100625.04;1793150;79;21649;-71
2020/12/12 09:19:43;;;;;;;23.85;12.40;;;;;;;-2.24;80.31;100625.38;1804605;79;21094;-74
2020/12/12 09:22:14;;;;;;;20.43;12.18;;;;;;;-2.19;80.39;100632.73;1801319;78;21686;-71
2020/12/12 09:24:42;;;;;;;22.98;12.70;;;;;;;-2.16;80.40;100623.23;1791478;79;21155;-73
2020/12/12 09:27:12;;;;;;;16.42;10.25;;;;;;;-2.08;80.43;100624.98;1805536;79;22360;-73
2020/12/12 09:29:40;;;;;;;21.93;12.45;;;;;;;-2.04;80.43;100619.72;1800528;79;21132;-73
2020/12/12 09:32:09;;;;;;;20.72;12.35;;;;;;;-2.00;80.35;100620.52;1795415;77;21594;-72
2020/12/12 09:34:38;;;;;;;18.20;11.12;;;;;;;-1.99;80.25;100616.91;1797640;78;21143;-73
2020/12/12 09:37:07;;;;;;;22.00;12.28;;;;;;;-1.97;80.20;100617.56;1803886;77;21428;-73
2020/12/12 09:39:35;;;;;;;20.85;12.60;;;;;;;-1.96;80.15;100609.21;1804009;77;21579;-73
2020/12/12 09:42:04;;;;;;;20.62;11.97;;;;;;;-1.95;80.17;100605.59;1812368;77;21149;-74
2020/12/12 09:44:32;;;;;;;22.62;12.05;;;;;;;-1.97;80.13;100595.81;1810168;77;21163;-74
2020/12/12 09:47:00;;;;;;;23.30;12.90;;;;;;;-1.97;80.04;100591.89;1814490;77;21140;-72
2020/12/12 09:49:29;;;;;;;20.12;12.18;;;;;;;-2.01;80.04;100587.47;1798797;79;21116;-72
2020/12/12 09:51:57;;;;;;;20.97;11.55;;;;;;;-2.02;80.05;100585.03;1806048;77;21250;-74
2020/12/12 09:54:25;;;;;;;24.80;12.75;;;;;;;-2.02;80.01;100580.61;1791500;77;21186;-73
2020/12/12 09:56:53;;;;;;;20.65;11.33;;;;;;;-2.02;79.98;100575.87;1807389;77;21175;-73
2020/12/12 09:59:21;;;;;;;21.42;12.90;;;;;;;-2.05;80.01;100573.60;1798923;77;21182;-72
2020/12/12 10:01:50;;;;;;;19.90;11.78;;;;;;;-2.03;80.04;100578.19;1796097;79;21103;-73
2020/12/12 10:04:18;;;;;;;24.20;12.47;;;;;;;-2.04;80.01;100576.06;1792962;79;21689;-73
2020/12/12 10:06:46;;;;;;;23.65;12.60;;;;;;;-2.07;79.91;100572.95;1789261;79;21178;-72
2020/12/12 10:09:14;;;;;;;21.35;12.13;;;;;;;-2.12;79.91;100573.48;1797768;77;21203;-73
2020/12/12 10:11:43;;;;;;;18.65;11.28;;;;;;;-2.14;79.96;100578.06;1800560;77;21135;-73
2020/12/12 10:14:13;;;;;;;20.00;11.68;;;;;;;-2.21;79.73;100571.91;1789272;79;21159;-73
2020/12/12 10:16:41;;;;;;;18.75;11.15;;;;;;;-2.30;79.65;100564.61;1789394;79;21150;-72
2020/12/12 10:19:10;;;;;;;18.75;11.48;;;;;;;-2.36;79.90;100554.84;1800657;77;21144;-73
2020/12/12 10:21:41;;;;;;;22.40;12.05;;;;;;;-2.37;79.98;100550.56;1785166;79;21594;-73
2020/12/12 10:24:09;;;;;;;18.75;11.28;;;;;;;-2.39;80.02;100544.22;1805259;78;21214;-74
2020/12/12 10:26:38;;;;;;;16.30;10.03;;;;;;;-2.39;80.05;100548.64;1790740;79;21772;-72
2020/12/12 10:29:06;;;;;;;21.17;11.68;;;;;;;-2.39;79.98;100549.95;1793837;79;21193;-72
2020/12/12 10:31:36;;;;;;;20.30;12.28;;;;;;;-2.40;80.02;100548.33;1807180;79;21191;-73
2020/12/12 10:34:05;;;;;;;22.60;13.45;;;;;;;-2.39;80.07;100556.48;1806194;77;21187;-73
2020/12/12 10:36:33;;;;;;;19.95;11.78;;;;;;;-2.37;80.11;100555.80;1802659;77;21638;-73
2020/12/12 10:39:02;;;;;;;22.07;11.93;;;;;;;-2.33;80.06;100544.03;1793197;79;21178;-73
2020/12/12 10:41:31;;;;;;;20.88;11.97;;;;;;;-2.33;80.05;100546.64;1790993;79;21369;-73
2020/12/12 10:43:59;;;;;;;22.45;12.50;;;;;;;-2.34;79.96;100545.00;1791384;79;21139;-74
2020/12/12 10:46:27;;;;;;;20.55;12.25;;;;;;;-2.37;79.89;100549.27;1790366;79;21123;-74
2020/12/12 10:48:56;;;;;;;20.80;12.73;;;;;;;-2.38;79.96;100560.22;1796993;77;21115;-72
2020/12/12 10:51:24;;;;;;;20.72;12.25;;;;;;;-2.41;80.04;100551.91;1792897;79;21178;-72
2020/12/12 10:53:52;;;;;;;18.20;11.22;;;;;;;-2.43;79.99;100547.36;1798012;79;21204;-72
2020/12/12 10:56:20;;;;;;;20.02;11.30;;;;;;;-2.46;79.84;100549.02;1791389;79;21178;-73
2020/12/12 10:58:49;;;;;;;23.02;13.15;;;;;;;-2.51;79.83;100544.77;1813353;79;21167;-74
2020/12/12 11:01:17;;;;;;;21.73;12.28;;;;;;;-2.57;79.84;100552.80;1789304;79;21218;-73
2020/12/12 11:03:45;;;;;;;18.73;11.80;;;;;;;-2.63;79.90;100550.41;1794677;79;21191;-73
2020/12/12 11:06:13;;;;;;;22.35;12.37;;;;;;;-2.61;79.95;100543.18;1797782;79;21983;-72
2020/12/12 11:08:43;;;;;;;21.68;12.00;;;;;;;-2.63;79.90;100536.02;1797840;79;21147;-74
2020/12/12 11:11:11;;;;;;;22.05;12.23;;;;;;;-2.67;80.02;100539.13;1802720;79;21275;-73
2020/12/12 11:13:41;;;;;;;22.42;12.53;;;;;;;-2.72;80.07;100535.73;1793705;79;21139;-73
2020/12/12 11:16:11;;;;;;;20.05;11.63;;;;;;;-2.72;80.13;100539.66;1788152;79;21183;-74
2020/12/12 11:18:40;;;;;;;20.30;11.78;;;;;;;-2.70;80.15;100538.16;1787439;77;22142;-73
2020/12/12 11:21:09;;;;;;;17.85;10.63;;;;;;;-2.68;80.25;100542.23;1789460;79;21159;-72
2020/12/12 11:23:38;;;;;;;21.20;11.50;;;;;;;-2.70;80.08;100550.77;1807441;79;21198;-72
2020/12/12 11:26:06;;;;;;;19.12;11.50;;;;;;;-2.71;80.13;100553.53;1797646;79;21123;-73
2020/12/12 11:28:34;;;;;;;18.48;10.72;;;;;;;-2.68;80.26;100558.42;1771448;79;21586;-73